createdAt,value
2018-08-07T00:00:31.494Z,17.90
2018-08-07T00:02:59.694Z,17.90
2018-08-07T00:05:27.887Z,17.90
2018-08-07T00:07:56.398Z,17.80
2018-08-07T00:10:25.623Z,17.80
2018-08-07T00:12:53.853Z,17.70
2018-08-07T00:15:24.085Z,17.70
2018-08-07T00:17:52.302Z,17.60
2018-08-07T00:20:20.509Z,17.60
2018-08-07T00:22:48.687Z,17.60
2018-08-07T00:25:16.912Z,17.50
2018-08-07T00:27:45.198Z,17.40
2018-08-07T00:30:14.334Z,17.50
2018-08-07T00:32:42.630Z,17.40
2018-08-07T00:35:16.046Z,17.40
2018-08-07T00:37:44.315Z,17.30
2018-08-07T00:40:14.181Z,17.40
2018-08-07T00:42:43.199Z,17.20
2018-08-07T00:45:14.478Z,17.20
2018-08-07T00:47:42.754Z,17.10
2018-08-07T00:50:13.787Z,17.10
2018-08-07T00:52:42.120Z,17.30
2018-08-07T00:55:10.278Z,17.30
2018-08-07T00:57:38.453Z,17.10
2018-08-07T01:00:09.139Z,17.20
2018-08-07T01:02:37.721Z,17.10
2018-08-07T01:05:08.776Z,17.10
2018-08-07T01:07:37.089Z,17.10
2018-08-07T01:10:06.389Z,17.10
2018-08-07T01:12:34.666Z,17.10
2018-08-07T01:15:02.882Z,17.00
2018-08-07T01:17:31.053Z,16.90
2018-08-07T01:19:59.282Z,16.80
2018-08-07T01:22:27.683Z,16.80
2018-08-07T01:24:55.862Z,16.80
2018-08-07T01:27:24.045Z,16.70
2018-08-07T01:29:52.237Z,16.70
2018-08-07T01:32:20.417Z,16.70
2018-08-07T01:34:48.607Z,16.60
2018-08-07T01:37:16.783Z,16.40
2018-08-07T01:39:45.921Z,16.50
2018-08-07T01:42:14.104Z,16.40
2018-08-07T01:44:42.265Z,16.40
2018-08-07T01:47:10.417Z,16.40
2018-08-07T01:49:38.602Z,16.20
2018-08-07T01:52:06.778Z,16.20
2018-08-07T01:54:34.943Z,16.10
2018-08-07T01:57:03.167Z,16.10
2018-08-07T01:59:31.337Z,15.90
2018-08-07T02:01:59.513Z,15.90
2018-08-07T02:04:27.693Z,15.80
2018-08-07T02:06:55.902Z,15.90
2018-08-07T02:09:24.093Z,15.90
2018-08-07T02:11:52.247Z,15.90
2018-08-07T02:14:20.786Z,15.90
2018-08-07T02:16:48.934Z,15.70
2018-08-07T02:22:08.269Z,15.60
2018-08-07T02:24:36.425Z,15.60
2018-08-07T02:29:32.825Z,15.60
2018-08-07T02:32:00.981Z,15.60
2018-08-07T02:34:29.102Z,15.50
2018-08-07T02:36:57.231Z,15.50
2018-08-07T02:39:25.396Z,15.50
2018-08-07T02:41:53.510Z,15.50
2018-08-07T02:44:21.727Z,15.60
2018-08-07T02:46:49.898Z,15.60
2018-08-07T02:49:18.286Z,15.40
2018-08-07T02:51:46.436Z,15.30
2018-08-07T02:54:14.571Z,15.30
2018-08-07T02:56:42.714Z,15.30
2018-08-07T02:59:10.879Z,15.30
2018-08-07T03:01:38.993Z,15.20
2018-08-07T03:04:07.273Z,15.10
2018-08-07T03:06:35.434Z,15.10
2018-08-07T03:09:05.326Z,15.10
2018-08-07T03:11:33.678Z,15.10
2018-08-07T03:14:01.814Z,15.10
2018-08-07T03:16:29.938Z,15.20
2018-08-07T03:18:58.033Z,15.20
2018-08-07T03:21:26.473Z,15.20
2018-08-07T03:23:54.590Z,15.10
2018-08-07T03:26:22.772Z,15.00
2018-08-07T03:28:51.125Z,15.00
2018-08-07T03:31:19.295Z,14.90
2018-08-07T03:33:47.457Z,15.10
2018-08-07T03:36:15.811Z,15.10
2018-08-07T03:38:43.947Z,15.00
2018-08-07T03:41:12.089Z,15.10
2018-08-07T03:43:40.239Z,15.10
2018-08-07T03:46:08.370Z,15.00
2018-08-07T03:48:36.501Z,14.90
2018-08-07T03:51:04.655Z,14.80
2018-08-07T03:53:32.782Z,14.90
2018-08-07T03:56:00.901Z,14.80
2018-08-07T03:58:29.004Z,14.80
2018-08-07T04:00:58.070Z,14.70
2018-08-07T04:03:26.209Z,14.70
2018-08-07T04:05:54.338Z,14.80
2018-08-07T04:08:22.491Z,14.80
2018-08-07T04:10:52.938Z,14.70
2018-08-07T04:13:21.110Z,14.60
2018-08-07T04:15:49.251Z,14.60
2018-08-07T04:18:17.406Z,14.60
2018-08-07T04:20:45.547Z,14.70
2018-08-07T04:23:14.834Z,14.60
2018-08-07T04:25:42.965Z,14.70
2018-08-07T04:28:11.474Z,14.70
2018-08-07T04:30:39.586Z,14.70
2018-08-07T04:35:35.614Z,14.90
2018-08-07T04:38:03.758Z,15.10
2018-08-07T04:40:31.917Z,15.10
2018-08-07T04:43:00.058Z,15.10
2018-08-07T04:45:28.554Z,15.10
2018-08-07T04:47:56.662Z,15.20
2018-08-07T04:50:24.785Z,15.30
2018-08-07T04:52:52.933Z,15.20
2018-08-07T04:55:21.056Z,15.30
2018-08-07T04:57:49.161Z,15.30
2018-08-07T05:00:19.256Z,15.40
2018-08-07T05:02:48.045Z,15.40
2018-08-07T05:05:16.273Z,15.40
2018-08-07T05:07:44.397Z,15.50
2018-08-07T05:10:14.407Z,15.70
2018-08-07T05:12:43.193Z,15.80
2018-08-07T05:15:11.557Z,16.00
2018-08-07T05:17:40.769Z,16.00
2018-08-07T05:20:09.009Z,16.20
2018-08-07T05:22:38.122Z,16.40
2018-08-07T05:25:06.711Z,16.60
2018-08-07T05:27:34.860Z,16.80
2018-08-07T05:30:02.998Z,17.30
2018-08-07T05:32:31.096Z,18.30
2018-08-07T05:34:59.273Z,19.30
2018-08-07T05:37:27.509Z,20.10
2018-08-07T05:39:55.609Z,20.60
2018-08-07T05:42:23.763Z,21.10
2018-08-07T05:44:51.822Z,21.60
2018-08-07T05:47:19.926Z,22.00
2018-08-07T05:49:48.026Z,22.60
2018-08-07T05:52:16.130Z,22.80
2018-08-07T05:54:44.234Z,23.50
2018-08-07T05:57:12.338Z,24.10
2018-08-07T05:59:40.449Z,24.40
2018-08-07T06:02:08.557Z,24.70
2018-08-07T06:04:36.706Z,24.80
2018-08-07T06:07:05.054Z,25.10
2018-08-07T06:09:33.182Z,25.50
2018-08-07T06:12:01.368Z,25.70
2018-08-07T06:14:29.536Z,25.70
2018-08-07T06:16:57.702Z,26.10
2018-08-07T06:19:25.809Z,26.20
2018-08-07T06:21:53.909Z,26.90
2018-08-07T06:24:22.054Z,26.40
2018-08-07T06:26:50.147Z,26.40
2018-08-07T06:29:18.285Z,27.10
2018-08-07T06:31:46.385Z,27.30
2018-08-07T06:34:14.537Z,27.10
2018-08-07T06:36:42.607Z,27.10
2018-08-07T06:39:10.734Z,27.60
2018-08-07T06:41:38.853Z,28.90
2018-08-07T06:44:06.962Z,29.30
2018-08-07T06:49:02.970Z,30.00
2018-08-07T06:51:31.091Z,29.60
2018-08-07T06:53:59.197Z,29.40
2018-08-07T06:56:27.325Z,28.80
2018-08-07T06:58:55.484Z,28.60
2018-08-07T07:01:23.590Z,29.00
2018-08-07T07:03:51.697Z,29.90
2018-08-07T07:06:19.890Z,30.60
2018-08-07T07:08:48.006Z,31.20
2018-08-07T07:11:16.144Z,31.70
2018-08-07T07:16:12.151Z,32.80
2018-08-07T07:18:42.377Z,33.20
2018-08-07T07:21:10.490Z,33.30
2018-08-07T07:23:38.616Z,33.50
2018-08-07T07:26:06.745Z,32.70
2018-08-07T07:28:34.870Z,32.30
2018-08-07T07:31:02.969Z,32.50
2018-08-07T07:33:31.157Z,31.90
2018-08-07T07:35:59.273Z,32.00
2018-08-07T07:38:27.431Z,32.60
2018-08-07T07:40:55.535Z,33.40
2018-08-07T07:43:23.642Z,34.10
2018-08-07T07:45:51.757Z,35.40
2018-08-07T07:48:19.842Z,35.40
2018-08-07T07:50:47.930Z,35.00
2018-08-07T07:53:16.058Z,35.00
2018-08-07T07:55:44.158Z,35.60
2018-08-07T07:58:12.258Z,35.70
2018-08-07T08:00:40.397Z,35.60
2018-08-07T08:03:08.504Z,37.00
2018-08-07T08:05:36.610Z,36.80
2018-08-07T08:08:04.697Z,37.10
2018-08-07T08:10:32.806Z,37.60
2018-08-07T08:13:00.966Z,39.00
2018-08-07T08:15:29.095Z,38.40
2018-08-07T08:17:57.214Z,38.80
2018-08-07T08:20:26.077Z,38.50
2018-08-07T08:22:54.934Z,38.30
2018-08-07T08:25:23.054Z,38.40
2018-08-07T08:27:51.382Z,38.60
2018-08-07T08:30:19.481Z,39.10
2018-08-07T08:32:47.698Z,37.70
2018-08-07T08:35:16.989Z,38.20
2018-08-07T08:37:45.471Z,37.60
2018-08-07T08:40:15.984Z,39.00
2018-08-07T08:42:44.188Z,39.40
2018-08-07T08:45:14.574Z,38.60
2018-08-07T08:47:43.552Z,39.00
2018-08-07T08:50:13.365Z,39.60
2018-08-07T08:52:41.756Z,38.80
2018-08-07T08:55:10.354Z,38.30
2018-08-07T08:57:38.847Z,38.10
2018-08-07T09:00:14.866Z,38.20
2018-08-07T09:02:44.266Z,39.20
2018-08-07T09:05:12.847Z,39.00
2018-08-07T09:07:41.423Z,39.00
2018-08-07T09:10:12.659Z,39.40
2018-08-07T09:12:40.829Z,39.20
2018-08-07T09:15:08.933Z,39.90
2018-08-07T09:17:41.046Z,40.50
2018-08-07T09:20:12.594Z,39.90
2018-08-07T09:22:40.704Z,39.90
2018-08-07T09:25:08.995Z,40.10
2018-08-07T09:27:37.093Z,41.10
2018-08-07T09:30:10.163Z,41.30
2018-08-07T09:32:38.261Z,41.90
2018-08-07T09:35:06.494Z,41.10
2018-08-07T09:37:34.733Z,40.10
2018-08-07T09:40:02.850Z,39.90
2018-08-07T09:42:30.950Z,40.00
2018-08-07T09:44:59.061Z,40.50
2018-08-07T09:47:27.218Z,40.10
2018-08-07T09:49:55.321Z,40.40
2018-08-07T09:52:23.481Z,40.50
2018-08-07T09:54:51.537Z,40.60
2018-08-07T09:57:19.645Z,41.20
2018-08-07T09:59:47.750Z,42.00
2018-08-07T10:02:21.910Z,42.00
2018-08-07T10:04:50.614Z,42.40
2018-08-07T10:07:18.787Z,42.50
2018-08-07T10:09:46.881Z,42.80
2018-08-07T10:12:15.010Z,42.00
2018-08-07T10:14:43.602Z,41.70
2018-08-07T10:17:29.558Z,41.40
2018-08-07T10:19:57.659Z,41.40
2018-08-07T10:22:25.813Z,40.40
2018-08-07T10:24:53.925Z,39.60
2018-08-07T10:27:22.061Z,39.60
2018-08-07T10:29:50.181Z,39.40
2018-08-07T10:32:18.313Z,40.00
2018-08-07T10:34:46.456Z,41.00
2018-08-07T10:37:14.639Z,41.10
2018-08-07T10:39:43.134Z,41.20
2018-08-07T10:42:11.644Z,40.90
2018-08-07T10:44:40.213Z,41.00
2018-08-07T10:47:08.414Z,40.00
2018-08-07T10:49:36.616Z,39.80
2018-08-07T10:52:04.846Z,40.00
2018-08-07T10:54:33.483Z,40.90
2018-08-07T10:57:01.651Z,40.90
2018-08-07T10:59:29.780Z,41.50
2018-08-07T11:01:57.888Z,41.30
2018-08-07T11:04:26.014Z,41.30
2018-08-07T11:06:54.144Z,40.80
2018-08-07T11:09:22.222Z,41.10
2018-08-07T11:11:50.393Z,40.90
2018-08-07T11:14:18.509Z,41.70
2018-08-07T11:16:46.612Z,41.70
2018-08-07T11:19:14.731Z,40.60
2018-08-07T11:21:42.845Z,40.60
2018-08-07T11:24:10.955Z,40.90
2018-08-07T11:26:39.069Z,40.60
2018-08-07T11:29:07.418Z,40.50
2018-08-07T11:31:35.593Z,40.20
2018-08-07T11:34:03.715Z,40.40
2018-08-07T11:36:31.830Z,39.50
2018-08-07T11:38:59.933Z,39.80
2018-08-07T11:41:28.105Z,41.30
2018-08-07T11:43:56.149Z,40.40
2018-08-07T11:46:24.266Z,40.40
2018-08-07T11:48:52.374Z,39.40
2018-08-07T11:51:20.518Z,39.20
2018-08-07T11:53:48.667Z,39.40
2018-08-07T11:56:30.174Z,39.80
2018-08-07T11:58:58.290Z,39.70
2018-08-07T12:01:26.414Z,39.30
2018-08-07T12:03:55.192Z,40.50
2018-08-07T12:06:23.290Z,38.50
2018-08-07T12:08:51.403Z,38.70
2018-08-07T12:11:19.521Z,39.30
2018-08-07T12:13:47.643Z,40.10
2018-08-07T12:16:15.792Z,39.70
2018-08-07T12:18:43.862Z,39.60
2018-08-07T12:21:11.981Z,39.70
2018-08-07T12:23:40.091Z,39.10
2018-08-07T12:26:08.209Z,39.80
2018-08-07T12:28:36.329Z,40.50
2018-08-07T12:31:04.439Z,40.80
2018-08-07T12:33:32.554Z,40.50
2018-08-07T12:36:00.662Z,41.20
2018-08-07T12:38:29.015Z,40.40
2018-08-07T12:40:57.161Z,39.90
2018-08-07T12:43:39.642Z,39.80
2018-08-07T12:46:08.021Z,39.30
2018-08-07T12:48:36.131Z,38.90
2018-08-07T12:53:32.131Z,38.90
2018-08-07T12:56:00.241Z,38.30
2018-08-07T12:58:28.346Z,37.30
2018-08-07T13:00:56.469Z,37.50
2018-08-07T13:03:24.600Z,37.10
2018-08-07T13:05:52.730Z,37.70
2018-08-07T13:08:20.842Z,37.40
2018-08-07T13:10:48.954Z,37.50
2018-08-07T13:13:18.097Z,37.50
2018-08-07T13:15:46.451Z,37.10
2018-08-07T13:18:20.846Z,37.60
2018-08-07T13:20:48.941Z,37.70
2018-08-07T13:23:17.058Z,38.00
2018-08-07T13:25:45.187Z,38.40
2018-08-07T13:28:13.310Z,38.40
2018-08-07T13:30:41.442Z,39.00
2018-08-07T13:33:09.587Z,38.00
2018-08-07T13:35:37.751Z,37.90
2018-08-07T13:38:05.881Z,38.10
2018-08-07T13:40:33.995Z,38.30
2018-08-07T13:43:02.097Z,38.30
2018-08-07T13:45:30.624Z,38.20
2018-08-07T13:47:58.738Z,38.00
2018-08-07T13:50:27.275Z,38.30
2018-08-07T13:52:55.462Z,37.20
2018-08-07T13:55:24.643Z,37.10
2018-08-07T13:57:52.798Z,37.00
2018-08-07T14:00:23.646Z,37.00
2018-08-07T14:03:04.891Z,36.70
2018-08-07T14:05:33.022Z,37.10
2018-08-07T14:08:01.201Z,37.50
2018-08-07T14:10:29.961Z,37.40
2018-08-07T14:12:58.214Z,37.30
2018-08-07T14:15:27.810Z,37.00
2018-08-07T14:17:56.017Z,36.50
2018-08-07T14:20:24.146Z,36.30
2018-08-07T14:22:52.265Z,36.20
2018-08-07T14:25:23.087Z,36.40
2018-08-07T14:27:51.216Z,36.60
2018-08-07T14:30:21.587Z,36.90
2018-08-07T14:32:49.782Z,36.70
2018-08-07T14:35:18.142Z,36.70
2018-08-07T14:37:46.930Z,36.80
2018-08-07T14:40:16.167Z,36.90
2018-08-07T14:42:45.633Z,37.00
2018-08-07T14:45:15.501Z,37.00
2018-08-07T14:47:44.104Z,36.70
2018-08-07T14:50:14.142Z,36.40
2018-08-07T14:52:42.317Z,36.20
2018-08-07T14:55:11.097Z,36.00
2018-08-07T14:57:39.691Z,36.00
2018-08-07T15:00:10.439Z,35.70
2018-08-07T15:02:38.609Z,35.50
2018-08-07T15:05:07.798Z,35.10
2018-08-07T15:07:35.993Z,35.20
2018-08-07T15:10:06.269Z,35.30
2018-08-07T15:12:34.882Z,35.70
2018-08-07T15:15:02.985Z,35.90
2018-08-07T15:18:09.574Z,35.80
2018-08-07T15:20:37.729Z,35.60
2018-08-07T15:23:05.837Z,35.70
2018-08-07T15:25:33.945Z,35.80
2018-08-07T15:28:02.054Z,35.90
2018-08-07T15:30:30.155Z,36.00
2018-08-07T15:32:58.525Z,35.80
2018-08-07T15:35:28.159Z,35.70
2018-08-07T15:37:56.388Z,35.60
2018-08-07T15:40:24.497Z,35.50
2018-08-07T15:42:52.699Z,35.50
2018-08-07T15:45:22.000Z,35.60
2018-08-07T15:47:50.285Z,35.60
2018-08-07T15:50:19.037Z,35.50
2018-08-07T15:52:49.745Z,35.60
2018-08-07T15:55:19.691Z,35.60
2018-08-07T15:57:47.821Z,35.80
2018-08-07T16:00:32.412Z,35.70
2018-08-07T16:03:01.401Z,35.70
2018-08-07T16:05:29.721Z,35.60
2018-08-07T16:07:57.884Z,35.70
2018-08-07T16:10:26.105Z,35.70
2018-08-07T16:12:54.889Z,35.60
2018-08-07T16:15:23.061Z,35.60
2018-08-07T16:17:52.161Z,35.40
2018-08-07T16:20:20.813Z,35.30
2018-08-07T16:22:48.933Z,35.30
2018-08-07T16:25:18.260Z,35.30
2018-08-07T16:27:47.608Z,35.20
2018-08-07T16:30:18.113Z,35.20
2018-08-07T16:32:46.127Z,35.20
2018-08-07T16:35:14.834Z,35.20
2018-08-07T16:37:43.107Z,35.20
2018-08-07T16:40:13.926Z,35.20
2018-08-07T16:42:46.385Z,35.10
2018-08-07T16:45:16.539Z,35.10
2018-08-07T16:47:44.725Z,35.10
2018-08-07T16:50:15.438Z,35.00
2018-08-07T16:52:43.607Z,34.90
2018-08-07T16:55:11.923Z,34.90
2018-08-07T16:57:40.187Z,34.90
2018-08-07T17:00:09.863Z,34.80
2018-08-07T17:02:38.253Z,34.70
2018-08-07T17:05:08.134Z,34.60
2018-08-07T17:07:36.299Z,34.50
2018-08-07T17:10:06.007Z,34.50
2018-08-07T17:12:34.141Z,34.50
2018-08-07T17:15:02.360Z,34.40
2018-08-07T17:17:30.475Z,34.30
2018-08-07T17:19:58.602Z,34.30
2018-08-07T17:22:26.757Z,34.20
2018-08-07T17:24:54.885Z,34.10
2018-08-07T17:27:23.042Z,34.00
2018-08-07T17:29:51.177Z,34.00
2018-08-07T17:32:19.281Z,33.80
2018-08-07T17:34:47.426Z,33.80
2018-08-07T17:37:15.565Z,33.70
2018-08-07T17:39:43.786Z,33.50
2018-08-07T17:42:11.946Z,33.40
2018-08-07T17:44:40.088Z,33.30
2018-08-07T17:47:08.264Z,33.10
2018-08-07T17:49:36.367Z,32.80
2018-08-07T17:52:04.514Z,32.60
2018-08-07T17:54:32.634Z,32.30
2018-08-07T17:57:00.802Z,32.20
2018-08-07T17:59:28.973Z,32.00
2018-08-07T18:01:57.058Z,31.90
2018-08-07T18:04:25.183Z,31.70
2018-08-07T18:06:53.344Z,31.60
2018-08-07T18:09:21.448Z,31.30
2018-08-07T18:11:49.582Z,31.20
2018-08-07T18:14:17.702Z,31.00
2018-08-07T18:16:45.863Z,30.90
2018-08-07T18:19:13.969Z,30.70
2018-08-07T18:21:42.073Z,30.60
2018-08-07T18:24:10.185Z,30.50
2018-08-07T18:26:38.297Z,30.40
2018-08-07T18:31:56.827Z,30.20
2018-08-07T18:34:24.927Z,30.00
2018-08-07T18:36:54.002Z,29.80
2018-08-07T18:39:22.448Z,29.60
2018-08-07T18:41:50.553Z,29.50
2018-08-07T18:44:18.889Z,29.40
2018-08-07T18:46:46.997Z,29.20
2018-08-07T18:49:15.105Z,29.80
2018-08-07T18:51:43.238Z,30.20
2018-08-07T18:54:11.351Z,30.40
2018-08-07T18:56:39.450Z,30.60
2018-08-07T18:59:07.637Z,30.80
2018-08-07T19:01:35.833Z,30.80
2018-08-07T19:04:03.977Z,30.90
2018-08-07T19:06:33.130Z,30.80
2018-08-07T19:09:01.263Z,30.80
2018-08-07T19:11:29.373Z,30.80
2018-08-07T19:13:57.485Z,30.60
2018-08-07T19:16:25.638Z,30.60
2018-08-07T19:18:54.260Z,30.50
2018-08-07T19:21:23.517Z,30.50
2018-08-07T19:23:51.675Z,30.40
2018-08-07T19:26:19.778Z,30.40
2018-08-07T19:28:47.971Z,30.40
2018-08-07T19:31:16.135Z,30.30
2018-08-07T19:33:44.318Z,30.30
2018-08-07T19:36:12.445Z,30.20
2018-08-07T19:38:40.569Z,30.10
2018-08-07T19:41:08.881Z,30.00
2018-08-07T19:43:37.022Z,30.00
2018-08-07T19:46:05.278Z,30.00
2018-08-07T19:48:34.469Z,29.80
2018-08-07T19:51:02.579Z,29.80
2018-08-07T19:53:30.700Z,29.80
2018-08-07T19:55:58.993Z,29.80
2018-08-07T19:58:27.071Z,29.80
2018-08-07T20:00:55.200Z,29.70
2018-08-07T20:03:23.377Z,29.70
2018-08-07T20:05:51.430Z,29.70
2018-08-07T20:08:19.569Z,29.60
2018-08-07T20:10:47.775Z,29.50
2018-08-07T20:13:15.838Z,29.40
2018-08-07T20:15:43.970Z,29.30
2018-08-07T20:18:12.081Z,29.30
2018-08-07T20:23:30.910Z,29.20
2018-08-07T20:25:59.027Z,29.10
2018-08-07T20:28:27.196Z,29.20
2018-08-07T20:30:55.445Z,29.20
2018-08-07T20:33:23.503Z,29.10
2018-08-07T20:35:51.669Z,29.10
2018-08-07T20:38:19.797Z,29.10
2018-08-07T20:40:47.925Z,29.10
2018-08-07T20:43:16.071Z,29.10
2018-08-07T20:45:44.234Z,29.10
2018-08-07T20:48:12.358Z,29.00
2018-08-07T20:50:40.478Z,29.00
2018-08-07T20:53:10.677Z,28.90
2018-08-07T20:55:38.886Z,28.80
2018-08-07T20:58:07.005Z,28.80
2018-08-07T21:00:35.181Z,28.80
2018-08-07T21:03:04.878Z,28.90
2018-08-07T21:05:33.020Z,28.90
2018-08-07T21:08:01.181Z,28.80
2018-08-07T21:10:29.445Z,28.80
2018-08-07T21:12:58.620Z,28.80
2018-08-07T21:15:26.758Z,28.70
2018-08-07T21:17:54.854Z,28.70
2018-08-07T21:20:23.747Z,28.60
2018-08-07T21:22:51.938Z,28.60
2018-08-07T21:25:22.425Z,28.60
2018-08-07T21:27:52.462Z,28.50
2018-08-07T21:30:23.190Z,28.50
2018-08-07T21:32:51.312Z,28.50
2018-08-07T21:35:19.442Z,28.40
2018-08-07T21:37:47.594Z,28.40
2018-08-07T21:40:17.205Z,28.40
2018-08-07T21:42:45.902Z,28.30
2018-08-07T21:45:14.341Z,28.30
2018-08-07T21:47:42.469Z,28.30
2018-08-07T21:50:12.261Z,28.30
2018-08-07T21:52:40.450Z,28.20
2018-08-07T21:55:10.454Z,28.20
2018-08-07T21:57:39.806Z,28.10
2018-08-07T22:00:15.669Z,28.10
2018-08-07T22:02:43.930Z,28.00
2018-08-07T22:05:12.211Z,28.00
2018-08-07T22:07:40.601Z,28.00
2018-08-07T22:10:15.053Z,27.90
2018-08-07T22:12:43.392Z,27.90
2018-08-07T22:15:11.898Z,27.90
2018-08-07T22:17:40.011Z,27.80
2018-08-07T22:20:09.078Z,27.70
2018-08-07T22:22:37.214Z,27.70
2018-08-07T22:25:05.874Z,27.60
2018-08-07T22:27:34.084Z,27.50
2018-08-07T22:30:02.349Z,27.40
2018-08-07T22:32:30.449Z,27.40
2018-08-07T22:34:58.574Z,27.30
2018-08-07T22:37:27.722Z,27.20
2018-08-07T22:39:55.858Z,27.10
2018-08-07T22:42:24.006Z,27.00
2018-08-07T22:44:52.125Z,27.00
2018-08-07T22:47:20.273Z,27.00
2018-08-07T22:49:48.382Z,26.90
2018-08-07T22:52:16.494Z,26.80
2018-08-07T22:54:44.611Z,26.70
2018-08-07T22:57:12.710Z,26.70
2018-08-07T22:59:40.834Z,26.50
2018-08-07T23:02:08.982Z,26.30
2018-08-07T23:04:37.132Z,26.10
2018-08-07T23:07:05.449Z,26.10
2018-08-07T23:09:33.551Z,26.00
2018-08-07T23:12:01.668Z,25.90
2018-08-07T23:14:29.791Z,25.70
2018-08-07T23:16:57.942Z,25.70
2018-08-07T23:19:26.122Z,25.80
2018-08-07T23:21:54.272Z,25.80
2018-08-07T23:24:22.399Z,25.70
2018-08-07T23:26:50.514Z,25.50
2018-08-07T23:29:18.634Z,25.50
2018-08-07T23:31:46.763Z,25.40
2018-08-07T23:34:14.881Z,25.30
2018-08-07T23:36:43.005Z,25.10
2018-08-07T23:39:11.192Z,25.00
2018-08-07T23:41:39.299Z,24.80
2018-08-07T23:44:07.439Z,24.60
2018-08-07T23:46:35.546Z,24.60
2018-08-07T23:49:03.682Z,24.40
2018-08-07T23:51:31.818Z,24.20
2018-08-07T23:53:59.938Z,24.20
2018-08-07T23:56:28.081Z,24.00
2018-08-07T23:58:56.197Z,24.00
